Huntington, NY (11743)

2:59 PM EDT on September 04, 2015 (GMT -0400)
Huntington, New York | | Change Station
CLOSE
Current Station
Personal Weather Station
Location: Huntington, NY
Elevation: 164 ft
Nearby Weather Stations

Elev 164 ft 40.87 °N, 73.40 °W | Updated 14 minutes ago

Mostly Cloudy
Mostly Cloudy
81.5 °F
Feels Like 86 °F
N
0.0
Wind Variable Wind from North
Gusts 3.0 mph

Today
High -- | Low -- °F
--% Chance of Precip.
Yesterday
High -- | Low -- °F
Precip. -- in
6:23 AM 7:21 PM
Waning Gibbous, 57% visible
Pressure 30.11 in
Visibility 10.0 miles
Clouds Overcast 3200 ft
Heat Index 86 °F
Dew Point 71 °F
Humidity 70%
Rainfall 0.00 in
Snow Depth Not available.
UV 2 out of 12
Pollen 8.20 out of 12
Air Quality Not available.
Flu Activity Not available.
METAR KFRG 041853Z 05008KT 10SM OVC032 28/19 A3011 RMK AO2 SLP194 T02780189
Pressure 30.11 in
Visibility 10.0 miles
Clouds Overcast 3200 ft
Heat Index 86 °F
Dew Point 71 °F
Humidity 70%
Rainfall 0.00 in
Snow Depth Not available.
UV 2 out of 12
Pollen 8.20 out of 12
Air Quality Not available.
Flu Activity Not available.
METAR KFRG 041853Z 05008KT 10SM OVC032 28/19 A3011 RMK AO2 SLP194 T02780189

10-Day Weather Forecast

×

Almanac

Astronomy

Sep. 04, 2015 Rise Set
Actual Time
Civil Twilight
Nautical Twilight
Astronomical Twilight
Moon
Length of Visible Light
Length of Day
Tomorrow will be .
, % of the Moon is Illuminated

Today's Extremes

State Highs State Lows

Community

WunderPhotos

Upload Photos

1,852,262 photos uploaded!

WunderBlogs® & News

Nearby

Air Quality

  Air Quality AQ Index Pollutant
Not available.

Snow Depth

Station Depth Elevation

Earthquake Activity

City Distance Mag. Time & Date
Minimum magnitude displayed is 2.5.

Coastal Water Temperatures

Place Temperature

Stations

Nearby Weather Stations

Station Location Temp. Windchill Dew Point Humidity Wind Precip. Elev Updated Type